Time;durP1;ratioP1;P1;durP2;ratioP2;P2;SDS_P1;SDS_P2;PMS_P1;PMS_P2;Temp;Humidity;BMP_temperature;BMP_pressure;BME280_temperature;BME280_humidity;BME280_pressure;Samples;Min_cycle;Max_cycle;Signal;HPM_P1;HPM_P2
2023/12/25 00:00:39;;;;;;;10.10;5.60;;;;;;;-1.32;72.20;97988.36;107474;1254;72981;-40
2023/12/25 00:03:07;;;;;;;13.50;6.80;;;;;;;-1.33;72.26;97984.83;107369;1254;67898;-40
2023/12/25 00:05:35;;;;;;;9.70;4.90;;;;;;;-1.30;72.22;97982.04;107348;1257;72651;-40
2023/12/25 00:08:03;;;;;;;7.80;5.00;;;;;;;-1.21;71.94;97976.11;107335;1256;59625;-40
2023/12/25 00:10:31;;;;;;;15.70;6.40;;;;;;;-1.18;72.05;97982.84;107419;1259;59221;-40
2023/12/25 00:12:58;;;;;;;10.80;5.80;;;;;;;-1.17;72.19;97973.65;107362;1254;72213;-40
2023/12/25 00:15:25;;;;;;;12.00;5.80;;;;;;;-1.16;72.05;97961.88;107385;1254;67601;-40
2023/12/25 00:17:53;;;;;;;11.70;5.60;;;;;;;-1.17;72.15;97946.27;107386;1256;72679;-40
2023/12/25 00:20:21;;;;;;;9.20;5.70;;;;;;;-1.16;72.43;97928.83;107335;1256;59611;-38
2023/12/25 00:22:49;;;;;;;11.70;6.00;;;;;;;-1.15;72.48;97923.32;107301;1257;59628;-38
2023/12/25 00:25:16;;;;;;;10.60;5.90;;;;;;;-1.16;72.47;97927.33;107285;1255;72975;-37
2023/12/25 00:27:44;;;;;;;10.80;5.40;;;;;;;-1.08;72.22;97927.11;107325;1257;66719;-38
2023/12/25 00:30:13;;;;;;;10.30;5.50;;;;;;;-0.99;72.39;97929.78;107285;1257;71184;-37
2023/12/25 00:32:40;;;;;;;12.30;5.80;;;;;;;-0.97;72.50;97928.03;106487;1257;1003516;-38
2023/12/25 00:35:08;;;;;;;11.60;6.40;;;;;;;-1.01;73.23;97925.38;107237;1257;59492;-38
2023/12/25 00:37:35;;;;;;;13.00;6.70;;;;;;;-1.04;73.61;97914.81;106475;1257;1003526;-38
2023/12/25 00:40:04;;;;;;;12.20;6.40;;;;;;;-1.07;74.14;97907.47;107281;1258;67169;-37
2023/12/25 00:42:31;;;;;;;9.00;5.80;;;;;;;-1.09;74.58;97900.41;107250;1257;71204;-38
2023/12/25 00:44:59;;;;;;;13.30;6.10;;;;;;;-1.03;74.68;97904.30;107281;1257;60822;-38
2023/12/25 00:47:26;;;;;;;12.30;6.30;;;;;;;-0.98;74.87;97904.50;107285;1257;59912;-37
2023/12/25 00:49:54;;;;;;;11.90;6.20;;;;;;;-0.99;75.21;97896.42;107269;1257;72691;-38
2023/12/25 00:52:22;;;;;;;9.90;5.70;;;;;;;-0.99;75.43;97876.96;107300;1256;66358;-37
2023/12/25 00:54:50;;;;;;;11.00;5.80;;;;;;;-0.98;75.72;97865.51;107235;1258;72676;-37
2023/12/25 00:57:18;;;;;;;10.50;5.80;;;;;;;-0.98;75.84;97857.09;107258;1259;60885;-37
2023/12/25 00:59:46;;;;;;;9.20;5.30;;;;;;;-0.94;76.10;97854.35;107271;1256;59595;-37
2023/12/25 01:02:14;;;;;;;9.50;5.40;;;;;;;-0.88;76.03;97853.31;107198;1257;73005;-38
2023/12/25 01:04:42;;;;;;;11.30;5.70;;;;;;;-0.86;76.46;97845.23;107261;1256;66595;-37
2023/12/25 01:07:10;;;;;;;10.60;5.90;;;;;;;-0.89;76.91;97830.70;107256;1259;71373;-38
2023/12/25 01:09:37;;;;;;;14.00;7.10;;;;;;;-0.90;77.16;97823.52;106489;1257;1002962;-38
2023/12/25 01:12:05;;;;;;;11.90;5.70;;;;;;;-0.90;77.61;97823.75;107265;1256;59855;-38
2023/12/25 01:14:32;;;;;;;13.60;5.90;;;;;;;-0.86;77.62;97818.78;107221;1257;72988;-39
2023/12/25 01:17:00;;;;;;;9.20;5.60;;;;;;;-0.78;77.96;97824.64;107253;1256;67499;-40
2023/12/25 01:19:28;;;;;;;14.40;6.70;;;;;;;-0.79;78.32;97824.06;107296;1257;71048;-39
2023/12/25 01:21:55;;;;;;;8.80;5.90;;;;;;;-0.83;78.90;97812.06;107221;1256;59503;-39
2023/12/25 01:24:23;;;;;;;12.00;6.30;;;;;;;-0.95;79.39;97811.45;107264;1257;60225;-39
2023/12/25 01:26:50;;;;;;;12.30;6.40;;;;;;;-0.97;80.03;97810.77;107292;1257;72286;-39
2023/12/25 01:29:18;;;;;;;9.40;5.70;;;;;;;-0.85;80.17;97813.20;107308;1256;67571;-39
2023/12/25 01:31:45;;;;;;;12.60;6.60;;;;;;;-0.82;80.35;97805.72;107254;1256;71150;-39
2023/12/25 01:34:13;;;;;;;11.20;6.50;;;;;;;-0.84;80.88;97798.19;107322;1257;59623;-39
2023/12/25 01:36:40;;;;;;;10.90;7.10;;;;;;;-0.87;81.08;97785.91;107182;1262;59704;-39
2023/12/25 01:39:08;;;;;;;13.40;6.80;;;;;;;-0.88;81.42;97774.80;107232;1257;71841;-39
2023/12/25 01:41:35;;;;;;;10.90;6.90;;;;;;;-0.83;81.27;97775.66;107209;1257;68051;-38
2023/12/25 01:44:03;;;;;;;11.70;6.90;;;;;;;-0.74;81.47;97777.04;107249;1257;71898;-38
2023/12/25 01:46:38;;;;;;;13.30;6.70;;;;;;;-0.71;81.56;97772.29;107215;1257;60451;-39
2023/12/25 01:49:07;;;;;;;13.10;7.80;;;;;;;-0.74;82.04;97767.34;107229;1261;60316;-39
2023/12/25 01:51:35;;;;;;;11.60;7.30;;;;;;;-0.79;82.21;97760.14;107143;1257;73845;-39
2023/12/25 01:54:04;;;;;;;12.00;6.60;;;;;;;-0.79;82.31;97748.52;107203;1256;66421;-39
2023/12/25 01:56:32;;;;;;;10.80;7.00;;;;;;;-0.72;82.32;97743.38;107218;1257;72693;-39
2023/12/25 01:59:00;;;;;;;13.50;7.10;;;;;;;-0.71;82.29;97738.16;107243;1257;60508;-39
2023/12/25 02:01:27;;;;;;;12.80;6.70;;;;;;;-0.75;82.45;97740.77;107167;1255;60388;-38
2023/12/25 02:03:54;;;;;;;15.00;7.20;;;;;;;-0.78;82.76;97741.09;107224;1257;73807;-39
2023/12/25 02:06:22;;;;;;;14.60;7.40;;;;;;;-0.78;82.92;97737.44;107202;1257;67864;-39
2023/12/25 02:08:50;;;;;;;14.60;7.30;;;;;;;-0.71;82.83;97723.42;107118;1259;71819;-38
2023/12/25 02:11:17;;;;;;;10.90;6.70;;;;;;;-0.64;82.77;97709.23;107190;1257;60537;-38
2023/12/25 02:13:45;;;;;;;10.80;6.30;;;;;;;-0.63;82.97;97701.06;107236;1256;60360;-39
2023/12/25 02:16:12;;;;;;;10.90;7.00;;;;;;;-0.62;83.13;97702.52;107133;1259;72611;-39
2023/12/25 02:18:40;;;;;;;10.50;7.20;;;;;;;-0.60;83.32;97686.02;107162;1257;66628;-39
2023/12/25 02:21:08;;;;;;;13.20;7.40;;;;;;;-0.55;83.04;97671.78;107197;1257;72447;-39
2023/12/25 02:23:37;;;;;;;10.90;6.30;;;;;;;-0.40;82.90;97667.85;107219;1260;60437;-39
2023/12/25 02:26:06;;;;;;;11.20;6.80;;;;;;;-0.33;82.74;97669.31;107232;1257;60329;-38
2023/12/25 02:28:34;;;;;;;9.70;7.00;;;;;;;-0.29;82.72;97664.11;107255;1258;73872;-39
2023/12/25 02:31:01;;;;;;;9.30;7.00;;;;;;;-0.29;82.44;97661.99;107225;1257;67562;-38
2023/12/25 02:33:29;;;;;;;12.60;7.00;;;;;;;-0.29;82.65;97654.52;107209;1257;72669;-39
2023/12/25 02:35:58;;;;;;;9.60;6.90;;;;;;;-0.31;82.50;97639.39;107264;1257;60411;-39
2023/12/25 02:38:25;;;;;;;10.30;6.80;;;;;;;-0.27;82.40;97638.34;107285;1256;60301;-41
2023/12/25 02:40:53;;;;;;;8.60;6.40;;;;;;;-0.20;82.17;97630.95;107231;1257;73813;-39
2023/12/25 02:43:20;;;;;;;9.30;6.60;;;;;;;-0.17;82.41;97627.33;107266;1257;66288;-39
2023/12/25 02:45:48;;;;;;;10.70;7.00;;;;;;;-0.15;82.53;97623.20;107189;1257;72470;-39
2023/12/25 02:48:15;;;;;;;11.30;6.80;;;;;;;-0.12;82.59;97624.88;107343;1257;60482;-39
2023/12/25 02:50:43;;;;;;;9.30;6.70;;;;;;;-0.12;82.50;97622.15;107290;1255;60270;-39
2023/12/25 02:53:11;;;;;;;7.50;5.50;;;;;;;-0.08;81.92;97629.00;107272;1257;74348;-39
2023/12/25 02:55:39;;;;;;;10.00;6.10;;;;;;;-0.04;81.96;97625.90;107225;1257;67681;-39
2023/12/25 02:58:07;;;;;;;10.00;6.40;;;;;;;-0.09;82.06;97616.95;107251;1257;71406;-39
2023/12/25 03:00:34;;;;;;;10.40;6.00;;;;;;;-0.14;82.35;97613.56;107233;1257;60427;-39
2023/12/25 03:03:02;;;;;;;9.90;6.00;;;;;;;-0.19;82.66;97605.71;107275;1257;60317;-39
2023/12/25 03:05:29;;;;;;;8.00;5.80;;;;;;;-0.21;83.05;97601.09;107287;1256;73798;-39
2023/12/25 03:07:58;;;;;;;9.00;5.50;;;;;;;-0.17;83.22;97599.16;107259;1259;68045;-39
2023/12/25 03:10:25;;;;;;;7.70;5.10;;;;;;;-0.13;83.31;97587.56;107241;1257;72655;-39
2023/12/25 03:12:53;;;;;;;7.70;5.20;;;;;;;-0.15;83.76;97582.02;107245;1256;60497;-39
2023/12/25 03:15:20;;;;;;;7.30;5.40;;;;;;;-0.21;84.07;97568.06;106498;1256;1003237;-39
2023/12/25 03:17:47;;;;;;;7.50;5.50;;;;;;;-0.23;84.34;97558.63;107228;1256;73203;-39
2023/12/25 03:20:15;;;;;;;6.20;4.80;;;;;;;-0.19;84.65;97552.31;104248;1256;1003648;-39
2023/12/25 03:22:44;;;;;;;6.00;4.50;;;;;;;-0.13;84.86;97544.95;107223;1257;60559;-39
2023/12/25 03:25:12;;;;;;;6.50;4.90;;;;;;;-0.16;85.21;97537.27;107257;1257;60402;-39
2023/12/25 03:27:39;;;;;;;6.40;4.80;;;;;;;-0.19;85.59;97526.89;107190;1256;60424;-39
2023/12/25 03:30:07;;;;;;;5.90;4.70;;;;;;;-0.21;85.89;97518.16;107257;1257;73890;-39
2023/12/25 03:32:35;;;;;;;6.40;4.20;;;;;;;-0.15;86.10;97512.11;107213;1257;67546;-39
2023/12/25 03:35:03;;;;;;;6.90;4.60;;;;;;;-0.08;86.02;97506.83;107238;1257;71385;-39
2023/12/25 03:37:31;;;;;;;5.50;4.20;;;;;;;-0.08;86.22;97498.48;107274;1257;60335;-39
2023/12/25 03:39:58;;;;;;;6.40;4.60;;;;;;;-0.12;86.66;97488.61;107295;1257;60469;-39
2023/12/25 03:42:25;;;;;;;5.10;4.00;;;;;;;-0.13;87.16;97474.49;107250;1257;72563;-39
2023/12/25 03:44:53;;;;;;;5.20;4.20;;;;;;;-0.10;87.01;97472.79;107285;1256;67904;-39
2023/12/25 03:47:21;;;;;;;6.50;3.60;;;;;;;-0.05;86.80;97462.95;107222;1257;72271;-39
2023/12/25 03:49:48;;;;;;;7.60;4.30;;;;;;;-0.03;86.91;97457.83;107275;1257;60581;-39
2023/12/25 03:52:16;;;;;;;5.90;4.70;;;;;;;-0.04;87.06;97460.84;107275;1256;60294;-39
2023/12/25 03:54:44;;;;;;;5.90;4.60;;;;;;;-0.05;87.07;97458.30;107208;1256;72603;-39
2023/12/25 03:57:11;;;;;;;4.80;3.60;;;;;;;-0.01;87.13;97457.83;107253;1257;67875;-39
2023/12/25 03:59:39;;;;;;;5.00;4.10;;;;;;;0.04;86.95;97454.68;107281;1256;71370;-39
2023/12/25 04:02:07;;;;;;;6.20;4.00;;;;;;;0.04;86.80;97447.23;107282;1257;60863;-39
2023/12/25 04:04:37;;;;;;;4.20;3.80;;;;;;;0.02;87.03;97448.98;106485;1255;1003617;-38
2023/12/25 04:07:05;;;;;;;6.60;3.90;;;;;;;0.01;87.35;97440.98;107230;1257;73128;-39
2023/12/25 04:09:32;;;;;;;5.10;3.50;;;;;;;0.07;87.45;97445.41;107226;1257;67542;-39
2023/12/25 04:12:00;;;;;;;5.40;3.60;;;;;;;0.11;87.27;97434.26;107219;1257;71828;-39
2023/12/25 04:14:28;;;;;;;6.40;4.10;;;;;;;0.10;87.72;97428.83;107257;1257;60338;-38
2023/12/25 04:16:55;;;;;;;7.00;3.70;;;;;;;0.06;88.01;97420.65;107251;1256;60473;-39
2023/12/25 04:19:23;;;;;;;4.50;3.40;;;;;;;0.12;87.90;97417.98;107251;1256;73865;-38
2023/12/25 04:21:51;;;;;;;4.10;3.50;;;;;;;0.22;88.08;97417.20;107370;1260;67906;-39
2023/12/25 04:24:18;;;;;;;5.00;3.50;;;;;;;0.24;87.84;97412.77;107234;1257;71509;-39
2023/12/25 04:26:46;;;;;;;4.20;3.30;;;;;;;0.22;88.16;97411.27;107309;1256;60391;-39
2023/12/25 04:29:13;;;;;;;3.80;3.40;;;;;;;0.20;88.38;97411.67;105718;1260;1003740;-38
2023/12/25 04:31:40;;;;;;;4.10;3.40;;;;;;;0.27;88.20;97409.12;107198;1256;72562;-39
2023/12/25 04:34:08;;;;;;;4.10;3.20;;;;;;;0.35;88.23;97404.53;107244;1256;67832;-39
2023/12/25 04:36:36;;;;;;;4.70;3.70;;;;;;;0.35;88.43;97396.19;107239;1257;72731;-38
2023/12/25 04:39:05;;;;;;;5.60;4.00;;;;;;;0.34;88.76;97391.94;107227;1262;60175;-39
2023/12/25 04:41:33;;;;;;;4.60;3.70;;;;;;;0.34;88.85;97382.30;107247;1259;60457;-39
2023/12/25 04:44:00;;;;;;;7.10;3.60;;;;;;;0.42;88.87;97374.27;107214;1256;72633;-39
2023/12/25 04:46:29;;;;;;;5.00;3.60;;;;;;;0.51;88.79;97364.52;107280;1257;66414;-39
2023/12/25 04:48:56;;;;;;;4.80;3.90;;;;;;;0.55;89.18;97356.85;107210;1257;72693;-39
2023/12/25 04:51:24;;;;;;;4.80;3.70;;;;;;;0.57;89.62;97353.34;107283;1256;60232;-38
2023/12/25 04:53:52;;;;;;;5.40;3.30;;;;;;;0.60;90.09;97349.97;107301;1256;60300;-38
2023/12/25 04:56:19;;;;;;;4.70;3.50;;;;;;;0.68;90.06;97348.88;107232;1257;73888;-38
2023/12/25 04:58:47;;;;;;;4.20;3.50;;;;;;;0.77;90.02;97349.18;107253;1255;67571;-39
2023/12/25 05:01:15;;;;;;;3.70;3.10;;;;;;;0.81;90.33;97340.23;107269;1257;72685;-39
2023/12/25 05:03:42;;;;;;;4.80;3.30;;;;;;;0.82;90.56;97334.91;107251;1256;60603;-38
2023/12/25 05:06:10;;;;;;;5.00;3.20;;;;;;;0.85;90.66;97327.65;107261;1257;60446;-39
2023/12/25 05:08:37;;;;;;;3.90;3.30;;;;;;;0.94;90.63;97319.94;107233;1257;73869;-39
2023/12/25 05:11:05;;;;;;;3.80;2.80;;;;;;;1.01;90.25;97316.90;107255;1257;67567;-39
2023/12/25 05:13:32;;;;;;;4.20;3.20;;;;;;;1.01;90.56;97319.20;107272;1255;72475;-39
2023/12/25 05:16:00;;;;;;;3.30;2.60;;;;;;;1.00;90.86;97308.89;107244;1257;59569;-39
2023/12/25 05:18:27;;;;;;;4.00;2.60;;;;;;;1.05;90.71;97305.25;107239;1256;60425;-38
2023/12/25 05:20:55;;;;;;;3.60;2.30;;;;;;;1.14;90.76;97302.34;107267;1255;73775;-38
2023/12/25 05:23:22;;;;;;;2.90;2.40;;;;;;;1.17;91.18;97297.23;107295;1259;67370;-38
2023/12/25 05:25:50;;;;;;;3.00;2.20;;;;;;;1.17;91.48;97284.11;107244;1257;72523;-38
2023/12/25 05:28:18;;;;;;;4.10;2.50;;;;;;;1.25;91.29;97281.45;107241;1259;60561;-38
2023/12/25 05:30:45;;;;;;;2.70;2.20;;;;;;;1.33;90.96;97281.79;107287;1256;60172;-38
2023/12/25 05:33:13;;;;;;;3.90;2.50;;;;;;;1.32;91.00;97281.45;107284;1256;74273;-38
2023/12/25 05:35:41;;;;;;;5.30;2.80;;;;;;;1.29;90.99;97280.42;107270;1257;66655;-39
2023/12/25 05:38:08;;;;;;;3.00;2.30;;;;;;;1.34;91.13;97270.42;107273;1256;71372;-38
2023/12/25 05:40:36;;;;;;;2.90;2.50;;;;;;;1.40;90.99;97262.17;107263;1257;60424;-38
2023/12/25 05:43:03;;;;;;;2.80;2.40;;;;;;;1.41;91.11;97255.16;107435;1256;60451;-39
2023/12/25 05:45:31;;;;;;;3.10;2.50;;;;;;;1.38;91.49;97255.95;107255;1255;74366;-39
2023/12/25 05:47:58;;;;;;;3.80;2.30;;;;;;;1.44;91.30;97255.92;107290;1256;66892;-40
2023/12/25 05:50:27;;;;;;;3.10;2.60;;;;;;;1.52;91.20;97256.86;107248;1256;72970;-39
2023/12/25 05:52:54;;;;;;;2.80;2.30;;;;;;;1.54;91.42;97255.76;107260;1257;60533;-39
2023/12/25 05:55:22;;;;;;;3.90;2.80;;;;;;;1.53;91.59;97259.77;107264;1256;60329;-39
2023/12/25 05:57:49;;;;;;;4.70;3.00;;;;;;;1.57;91.54;97251.68;107304;1257;73885;-39
2023/12/25 06:00:18;;;;;;;4.10;3.00;;;;;;;1.64;91.41;97240.53;107306;1257;67307;-39
2023/12/25 06:02:45;;;;;;;3.80;2.90;;;;;;;1.64;91.47;97237.03;107265;1256;72742;-39
2023/12/25 06:05:13;;;;;;;3.90;2.90;;;;;;;1.61;91.70;97226.44;107232;1257;60417;-39
2023/12/25 06:07:41;;;;;;;6.00;3.70;;;;;;;1.63;91.87;97223.41;107429;1257;61116;-39
2023/12/25 06:10:09;;;;;;;3.80;2.90;;;;;;;1.70;91.83;97228.06;107281;1256;73878;-39
2023/12/25 06:12:36;;;;;;;4.00;3.10;;;;;;;1.74;91.86;97225.70;107299;1257;66797;-39
2023/12/25 06:15:05;;;;;;;4.80;3.40;;;;;;;1.73;92.14;97231.33;107280;1257;72727;-39
2023/12/25 06:17:33;;;;;;;;;;;;;;;1.75;92.25;97233.50;107460;1258;60058;-39
2023/12/25 06:20:04;;;;;;;3.70;3.10;;;;;;;1.82;92.30;97216.90;107249;1259;60306;-39
2023/12/25 06:22:45;;;;;;;4.70;3.10;;;;;;;1.88;92.33;97229.78;107292;1257;73822;-39
2023/12/25 06:25:12;;;;;;;5.00;3.30;;;;;;;1.86;92.86;97233.70;107228;1256;68018;-39
2023/12/25 06:27:40;;;;;;;3.70;3.00;;;;;;;1.88;92.81;97226.80;107241;1256;71487;-39
2023/12/25 06:30:25;;;;;;;4.30;3.00;;;;;;;1.97;92.88;97242.59;107265;1259;60986;-39
2023/12/25 06:32:53;;;;;;;4.70;3.00;;;;;;;2.02;92.89;97237.20;107298;1256;60364;-39
2023/12/25 06:35:22;;;;;;;4.00;2.90;;;;;;;2.03;93.00;97237.98;107281;1257;73809;-39
2023/12/25 06:37:49;;;;;;;4.10;3.00;;;;;;;2.01;93.46;97233.52;107272;1260;66753;-39
2023/12/25 06:40:17;;;;;;;4.00;2.80;;;;;;;2.07;93.45;97229.89;107281;1259;71413;-39
2023/12/25 06:42:44;;;;;;;3.60;2.90;;;;;;;2.16;93.31;97236.69;107271;1257;59831;-41
2023/12/25 06:45:12;;;;;;;4.20;3.20;;;;;;;2.15;93.59;97237.20;107248;1257;60293;-38
2023/12/25 06:47:39;;;;;;;5.50;3.50;;;;;;;2.14;93.98;97234.97;107222;1256;72620;-38
2023/12/25 06:50:07;;;;;;;5.20;3.20;;;;;;;2.18;94.05;97248.94;107242;1257;66430;-38
2023/12/25 06:52:35;;;;;;;3.50;3.00;;;;;;;2.25;93.80;97255.23;107296;1259;72680;-38
2023/12/25 06:55:04;;;;;;;4.30;3.30;;;;;;;2.26;93.73;97252.52;107329;1257;60338;-38
2023/12/25 06:57:31;;;;;;;4.20;3.40;;;;;;;2.24;93.99;97250.71;107356;1257;60329;-38
2023/12/25 06:59:59;;;;;;;5.50;3.60;;;;;;;2.29;93.91;97242.79;107317;1257;72859;-38
2023/12/25 07:02:26;;;;;;;5.70;3.70;;;;;;;2.35;93.68;97242.34;107281;1257;68051;-38
2023/12/25 07:04:54;;;;;;;5.20;3.40;;;;;;;2.36;93.73;97237.64;107272;1257;72936;-38
2023/12/25 07:07:21;;;;;;;3.90;3.00;;;;;;;2.36;93.86;97233.59;107266;1257;60840;-38
2023/12/25 07:09:49;;;;;;;4.30;3.00;;;;;;;2.40;93.81;97235.71;107262;1256;60367;-38
2023/12/25 07:12:16;;;;;;;4.40;3.10;;;;;;;2.46;93.64;97240.70;107292;1257;72579;-38
2023/12/25 07:14:47;;;;;;;4.40;3.00;;;;;;;2.49;93.68;97232.56;107254;1257;67705;-38
2023/12/25 07:17:14;;;;;;;5.30;3.30;;;;;;;2.49;93.86;97234.02;107309;1257;72662;-38
2023/12/25 07:19:43;;;;;;;3.60;2.90;;;;;;;2.53;94.23;97239.83;107276;1257;60427;-38
2023/12/25 07:22:11;;;;;;;3.30;2.20;;;;;;;2.63;94.04;97237.84;107286;1258;60360;-38
2023/12/25 07:24:38;;;;;;;4.40;3.40;;;;;;;2.65;94.14;97235.59;106506;1257;1003071;-38
2023/12/25 07:27:06;;;;;;;4.90;3.20;;;;;;;2.64;94.18;97247.40;107243;1257;67195;-38
2023/12/25 07:29:33;;;;;;;4.40;2.80;;;;;;;2.68;94.33;97247.86;107233;1259;72651;-38
2023/12/25 07:32:01;;;;;;;2.90;2.40;;;;;;;2.75;94.38;97252.23;107274;1256;59256;-38
2023/12/25 07:34:29;;;;;;;5.00;3.10;;;;;;;2.78;94.52;97246.56;107254;1257;60408;-39
2023/12/25 07:36:57;;;;;;;4.40;3.20;;;;;;;2.78;94.77;97245.11;107224;1257;72900;-39
2023/12/25 07:39:24;;;;;;;4.40;3.00;;;;;;;2.80;95.51;97240.55;107258;1257;67708;-38
2023/12/25 07:41:52;;;;;;;3.30;2.70;;;;;;;2.91;95.49;97239.19;107217;1257;72648;-38
2023/12/25 07:44:22;;;;;;;3.70;2.90;;;;;;;3.00;95.27;97234.34;107291;1256;60419;-39
2023/12/25 07:46:49;;;;;;;5.30;3.00;;;;;;;3.02;95.39;97232.69;107301;1257;60526;-39
2023/12/25 07:49:17;;;;;;;3.40;2.70;;;;;;;3.07;95.66;97231.07;107259;1260;71830;-39
2023/12/25 07:51:45;;;;;;;4.50;2.70;;;;;;;3.18;95.22;97228.39;107220;1257;66585;-39
2023/12/25 07:54:13;;;;;;;3.80;3.10;;;;;;;3.25;94.98;97231.01;107253;1256;72669;-39
2023/12/25 07:56:40;;;;;;;4.20;3.10;;;;;;;3.27;94.93;97237.30;107299;1257;59301;-39
2023/12/25 07:59:08;;;;;;;3.70;2.70;;;;;;;3.27;94.89;97229.82;107290;1261;59575;-39
2023/12/25 08:01:35;;;;;;;4.60;2.50;;;;;;;3.33;94.70;97221.23;107282;1261;73853;-39
2023/12/25 08:04:03;;;;;;;3.80;2.60;;;;;;;3.41;94.39;97230.66;107288;1257;67882;-39
2023/12/25 08:06:31;;;;;;;3.80;3.00;;;;;;;3.42;94.37;97238.13;107252;1257;72792;-39
2023/12/25 08:08:58;;;;;;;4.00;2.60;;;;;;;3.43;94.80;97238.05;105759;1263;1002916;-39
2023/12/25 08:11:27;;;;;;;3.60;2.70;;;;;;;3.52;94.81;97230.74;107290;1257;60453;-39
2023/12/25 08:13:56;;;;;;;3.70;2.70;;;;;;;3.66;94.72;97225.61;107276;1257;73769;-39
2023/12/25 08:16:24;;;;;;;4.50;3.10;;;;;;;3.73;94.82;97229.52;107290;1257;67515;-40
2023/12/25 08:18:51;;;;;;;3.10;2.40;;;;;;;3.75;94.91;97234.99;107220;1258;71453;-39
2023/12/25 08:21:20;;;;;;;3.10;2.60;;;;;;;3.84;94.56;97237.98;107267;1257;61010;-39
2023/12/25 08:23:47;;;;;;;4.00;2.50;;;;;;;3.92;94.17;97239.15;107306;1261;60447;-39
2023/12/25 08:26:15;;;;;;;3.70;2.50;;;;;;;3.95;93.84;97231.76;107255;1257;73093;-39
2023/12/25 08:28:42;;;;;;;5.70;2.60;;;;;;;3.94;93.65;97225.31;107286;1257;67518;-39
2023/12/25 08:31:10;;;;;;;3.60;2.70;;;;;;;3.99;93.42;97229.80;107300;1261;73092;-39
2023/12/25 08:33:37;;;;;;;2.90;2.30;;;;;;;4.07;93.14;97230.11;107271;1257;59642;-39
2023/12/25 08:36:05;;;;;;;4.00;2.40;;;;;;;4.11;93.47;97221.96;107287;1262;60297;-39
2023/12/25 08:38:35;;;;;;;3.60;2.30;;;;;;;4.17;93.54;97227.55;107294;1257;73866;-38
2023/12/25 08:41:04;;;;;;;2.90;2.40;;;;;;;4.27;92.73;97231.30;107286;1257;67737;-39
2023/12/25 08:43:32;;;;;;;4.40;2.70;;;;;;;4.34;92.15;97227.31;107254;1257;73185;-39
2023/12/25 08:46:00;;;;;;;3.20;2.60;;;;;;;4.34;91.86;97228.92;107263;1261;60668;-39
2023/12/25 08:48:27;;;;;;;3.30;2.60;;;;;;;4.29;91.86;97226.81;107271;1258;60296;-39
2023/12/25 08:50:56;;;;;;;2.80;2.50;;;;;;;4.31;91.78;97230.35;107279;1257;73642;-39
2023/12/25 08:53:23;;;;;;;3.30;2.50;;;;;;;4.35;91.77;97224.02;107285;1257;67609;-39
2023/12/25 08:55:51;;;;;;;3.80;2.60;;;;;;;4.34;91.86;97228.92;107239;1258;72750;-39
2023/12/25 08:58:18;;;;;;;5.10;2.70;;;;;;;4.31;92.43;97231.71;107234;1257;61719;-39
2023/12/25 09:00:47;;;;;;;3.70;2.50;;;;;;;4.35;92.53;97225.79;107255;1257;60235;-39
2023/12/25 09:03:14;;;;;;;2.80;2.40;;;;;;;4.40;92.33;97227.27;107230;1257;73838;-39
2023/12/25 09:05:42;;;;;;;3.00;2.30;;;;;;;4.39;92.44;97230.95;107275;1256;67934;-39
2023/12/25 09:08:11;;;;;;;2.70;2.30;;;;;;;4.35;92.77;97227.09;107201;1257;72876;-39
2023/12/25 09:10:38;;;;;;;3.60;2.40;;;;;;;4.39;92.89;97223.90;107264;1257;60886;-39
2023/12/25 09:13:06;;;;;;;3.50;2.60;;;;;;;4.45;92.95;97225.18;107264;1256;60533;-39
2023/12/25 09:15:33;;;;;;;4.50;2.40;;;;;;;4.47;92.97;97221.67;107262;1258;73634;-39
2023/12/25 09:18:01;;;;;;;3.40;2.40;;;;;;;4.48;93.05;97221.91;107269;1256;68090;-39
2023/12/25 09:20:29;;;;;;;4.10;2.20;;;;;;;4.55;92.68;97222.27;107292;1256;72686;-39
2023/12/25 09:22:57;;;;;;;2.90;2.40;;;;;;;4.63;92.42;97225.34;107275;1257;60389;-39
2023/12/25 09:25:24;;;;;;;2.70;2.30;;;;;;;4.64;92.30;97220.66;107299;1257;60438;-40
2023/12/25 09:27:51;;;;;;;2.50;2.20;;;;;;;4.63;92.00;97221.95;107280;1257;74306;-39
2023/12/25 09:30:19;;;;;;;2.70;2.30;;;;;;;4.67;91.80;97223.37;107231;1257;66340;-39
2023/12/25 09:32:47;;;;;;;2.40;2.00;;;;;;;4.70;91.60;97225.46;107264;1257;72688;-38
2023/12/25 09:35:15;;;;;;;2.60;2.20;;;;;;;4.69;91.60;97221.54;107235;1257;60043;-39
2023/12/25 09:37:43;;;;;;;3.90;2.60;;;;;;;4.66;92.00;97227.41;107212;1257;62165;-39
2023/12/25 09:40:12;;;;;;;2.90;2.20;;;;;;;4.69;92.00;97241.93;107252;1259;73969;-39
2023/12/25 09:42:39;;;;;;;2.50;2.20;;;;;;;4.75;91.76;97244.13;107258;1257;66698;-39
2023/12/25 09:45:08;;;;;;;2.80;2.50;;;;;;;4.75;91.77;97247.04;107128;1257;71770;-39
2023/12/25 09:47:35;;;;;;;2.60;2.00;;;;;;;4.74;92.14;97254.16;107292;1257;61691;-40
2023/12/25 09:50:05;;;;;;;2.90;2.20;;;;;;;4.78;91.95;97253.81;107028;1257;141776;-40
2023/12/25 09:55:26;;;;;;;4.60;2.90;;;;;;;4.83;91.96;97255.85;104124;1292;600486;-37
2023/12/25 09:57:53;;;;;;;2.30;2.00;;;;;;;4.79;92.35;97255.59;106563;1267;60425;-39
2023/12/25 10:00:22;;;;;;;2.90;2.00;;;;;;;4.87;92.62;97259.87;106518;1267;59321;-39
2023/12/25 10:02:49;;;;;;;2.60;2.00;;;;;;;4.91;92.58;97261.42;106515;1267;70821;-39
2023/12/25 10:05:18;;;;;;;2.50;2.00;;;;;;;4.92;92.86;97266.80;106620;1266;67609;-38
2023/12/25 10:07:47;;;;;;;3.30;2.30;;;;;;;4.93;93.28;97271.11;106525;1272;72707;-39
2023/12/25 10:10:15;;;;;;;2.70;2.00;;;;;;;4.98;93.43;97264.30;106614;1267;114459;-38
2023/12/25 10:12:44;;;;;;;3.80;2.20;;;;;;;5.05;93.51;97260.98;106598;1267;60045;-38
2023/12/25 10:15:13;;;;;;;3.80;2.40;;;;;;;5.10;93.41;97262.95;106629;1269;71280;-38
2023/12/25 10:17:41;;;;;;;2.30;2.10;;;;;;;5.11;93.48;97271.67;106645;1269;67825;-38
2023/12/25 10:20:09;;;;;;;2.90;1.70;;;;;;;5.12;93.63;97278.92;106584;1269;72699;-38
2023/12/25 10:22:38;;;;;;;2.70;2.00;;;;;;;5.20;93.54;97276.89;106675;1267;61753;-38
2023/12/25 10:25:11;;;;;;;3.80;1.80;;;;;;;5.27;93.33;97273.71;106826;1266;60104;-38
2023/12/25 10:27:39;;;;;;;3.40;2.10;;;;;;;5.27;93.37;97266.19;106727;1269;71832;-38
2023/12/25 10:30:20;;;;;;;2.70;1.90;;;;;;;5.26;93.51;97259.35;106740;1267;66872;-39
2023/12/25 10:32:48;;;;;;;2.10;1.80;;;;;;;5.35;93.20;97258.10;106716;1267;72436;-38
2023/12/25 10:35:18;;;;;;;2.70;1.90;;;;;;;5.40;92.92;97254.76;106815;1267;59647;-38
2023/12/25 10:37:46;;;;;;;3.70;2.20;;;;;;;5.42;92.90;97250.45;106751;1267;60100;-38
2023/12/25 10:40:18;;;;;;;2.60;1.90;;;;;;;5.43;93.04;97253.91;106735;1269;73059;-38
2023/12/25 10:42:47;;;;;;;2.80;1.90;;;;;;;5.52;93.09;97250.27;106777;1266;67575;-38
2023/12/25 10:45:18;;;;;;;2.90;2.10;;;;;;;5.62;92.75;97250.48;106766;1267;71423;-38
2023/12/25 10:47:46;;;;;;;2.90;2.30;;;;;;;5.67;92.43;97244.27;106756;1264;59401;-38
2023/12/25 10:50:13;;;;;;;3.00;2.30;;;;;;;5.72;92.40;97246.98;106712;1267;60044;-38
2023/12/25 10:52:41;;;;;;;3.20;1.70;;;;;;;5.85;92.06;97246.96;106699;1271;73076;-38
2023/12/25 10:55:09;;;;;;;3.00;2.00;;;;;;;6.01;91.73;97244.10;106721;1269;67848;-38
2023/12/25 10:57:37;;;;;;;2.60;1.80;;;;;;;6.12;91.27;97250.67;106621;1267;72714;-38
2023/12/25 11:00:08;;;;;;;3.10;1.70;;;;;;;6.21;90.67;97247.54;106610;1267;60410;-38
2023/12/25 11:02:38;;;;;;;2.60;1.50;;;;;;;6.32;89.80;97248.17;106754;1268;60158;-38
2023/12/25 11:05:06;;;;;;;3.50;1.70;;;;;;;6.42;89.13;97253.10;106628;1267;73192;-39
2023/12/25 11:07:34;;;;;;;1.90;1.40;;;;;;;6.47;88.82;97252.80;106616;1267;67924;-38
2023/12/25 11:10:04;;;;;;;2.50;1.70;;;;;;;6.49;88.56;97250.43;106577;1270;71189;-38
2023/12/25 11:12:31;;;;;;;2.10;1.50;;;;;;;6.58;88.16;97252.80;106687;1270;60840;-38
2023/12/25 11:14:59;;;;;;;2.50;1.70;;;;;;;6.70;87.95;97256.59;106659;1269;60193;-38
2023/12/25 11:17:27;;;;;;;2.80;1.50;;;;;;;6.81;87.63;97261.44;106731;1267;71801;-39
2023/12/25 11:19:55;;;;;;;2.80;1.80;;;;;;;6.93;86.92;97262.27;106703;1266;66770;-38
2023/12/25 11:22:30;;;;;;;3.10;2.00;;;;;;;7.15;86.31;97261.80;106671;1269;72683;-40
2023/12/25 11:24:58;;;;;;;4.90;2.00;;;;;;;7.48;84.79;97262.88;106797;1269;60048;-38
2023/12/25 11:27:26;;;;;;;4.10;1.80;;;;;;;7.79;83.09;97267.40;106772;1267;59545;-38
2023/12/25 11:30:02;;;;;;;3.00;1.70;;;;;;;8.02;81.82;97263.60;106803;1267;73209;-38
2023/12/25 11:32:30;;;;;;;3.90;1.90;;;;;;;8.24;80.26;97262.10;106773;1269;66281;-39
2023/12/25 11:34:58;;;;;;;2.20;1.60;;;;;;;8.44;79.50;97257.21;106691;1269;72794;-39